sensor_id;sensor_type;location;lat;lon;timestamp;temperature;humidity
35258;DHT22;21385;50.878;8.050;2023-01-05T00:01:02;11.10;99.90
35258;DHT22;21385;50.878;8.050;2023-01-05T00:03:27;11.00;99.90
35258;DHT22;21385;50.878;8.050;2023-01-05T00:05:58;11.00;99.90
35258;DHT22;21385;50.878;8.050;2023-01-05T00:08:23;11.10;99.90
35258;DHT22;21385;50.878;8.050;2023-01-05T00:10:49;11.00;99.90
35258;DHT22;21385;50.878;8.050;2023-01-05T00:13:33;11.00;99.90
35258;DHT22;21385;50.878;8.050;2023-01-05T00:16:17;11.00;99.90
35258;DHT22;21385;50.878;8.050;2023-01-05T00:19:01;11.00;99.90
35258;DHT22;21385;50.878;8.050;2023-01-05T00:21:45;11.10;99.90
35258;DHT22;21385;50.878;8.050;2023-01-05T00:24:29;11.10;99.90
35258;DHT22;21385;50.878;8.050;2023-01-05T00:26:56;11.10;99.90
35258;DHT22;21385;50.878;8.050;2023-01-05T00:29:21;11.00;99.90
35258;DHT22;21385;50.878;8.050;2023-01-05T00:31:47;11.10;99.90
35258;DHT22;21385;50.878;8.050;2023-01-05T00:34:12;11.00;99.90
35258;DHT22;21385;50.878;8.050;2023-01-05T00:36:39;11.00;99.90
35258;DHT22;21385;50.878;8.050;2023-01-05T00:39:05;11.00;99.90
35258;DHT22;21385;50.878;8.050;2023-01-05T00:41:30;12.10;99.90
35258;DHT22;21385;50.878;8.050;2023-01-05T00:43:56;10.90;99.90
35258;DHT22;21385;50.878;8.050;2023-01-05T00:46:21;11.00;99.90
35258;DHT22;21385;50.878;8.050;2023-01-05T00:48:47;10.90;99.90
35258;DHT22;21385;50.878;8.050;2023-01-05T00:51:12;10.90;99.90
35258;DHT22;21385;50.878;8.050;2023-01-05T00:53:38;10.90;99.90
35258;DHT22;21385;50.878;8.050;2023-01-05T00:56:04;10.90;99.90
35258;DHT22;21385;50.878;8.050;2023-01-05T00:58:29;11.00;99.90
35258;DHT22;21385;50.878;8.050;2023-01-05T01:00:55;10.90;99.90
35258;DHT22;21385;50.878;8.050;2023-01-05T01:03:20;10.90;99.90
35258;DHT22;21385;50.878;8.050;2023-01-05T01:05:55;10.90;99.90
35258;DHT22;21385;50.878;8.050;2023-01-05T01:08:21;10.90;99.90
35258;DHT22;21385;50.878;8.050;2023-01-05T01:10:46;10.80;99.90
35258;DHT22;21385;50.878;8.050;2023-01-05T01:13:12;10.70;99.90
35258;DHT22;21385;50.878;8.050;2023-01-05T01:15:37;10.80;99.90
35258;DHT22;21385;50.878;8.050;2023-01-05T01:18:03;10.80;99.90
35258;DHT22;21385;50.878;8.050;2023-01-05T01:20:29;10.80;99.90
35258;DHT22;21385;50.878;8.050;2023-01-05T01:22:54;10.80;99.90
35258;DHT22;21385;50.878;8.050;2023-01-05T01:25:21;10.80;99.90
35258;DHT22;21385;50.878;8.050;2023-01-05T01:27:47;10.80;99.90
35258;DHT22;21385;50.878;8.050;2023-01-05T01:30:13;10.70;99.90
35258;DHT22;21385;50.878;8.050;2023-01-05T01:32:38;10.70;99.90
35258;DHT22;21385;50.878;8.050;2023-01-05T01:35:04;10.70;99.90
35258;DHT22;21385;50.878;8.050;2023-01-05T01:37:30;10.70;99.90
35258;DHT22;21385;50.878;8.050;2023-01-05T01:39:55;10.80;99.90
35258;DHT22;21385;50.878;8.050;2023-01-05T01:42:21;10.70;99.90
35258;DHT22;21385;50.878;8.050;2023-01-05T01:45:20;10.70;99.90
35258;DHT22;21385;50.878;8.050;2023-01-05T01:47:58;10.70;99.90
35258;DHT22;21385;50.878;8.050;2023-01-05T01:50:40;10.80;99.90
35258;DHT22;21385;50.878;8.050;2023-01-05T01:53:20;10.80;99.90
35258;DHT22;21385;50.878;8.050;2023-01-05T01:55:47;10.70;99.90
35258;DHT22;21385;50.878;8.050;2023-01-05T01:58:15;10.70;99.90
35258;DHT22;21385;50.878;8.050;2023-01-05T02:00:42;10.70;99.90
35258;DHT22;21385;50.878;8.050;2023-01-05T02:03:08;10.60;99.90
35258;DHT22;21385;50.878;8.050;2023-01-05T02:05:34;10.50;99.90
35258;DHT22;21385;50.878;8.050;2023-01-05T02:08:02;10.50;99.90
35258;DHT22;21385;50.878;8.050;2023-01-05T02:10:40;10.60;99.90
35258;DHT22;21385;50.878;8.050;2023-01-05T02:13:30;10.60;99.90
35258;DHT22;21385;50.878;8.050;2023-01-05T02:16:24;10.50;99.90
35258;DHT22;21385;50.878;8.050;2023-01-05T02:18:59;10.60;99.90
35258;DHT22;21385;50.878;8.050;2023-01-05T02:21:50;10.60;99.90
35258;DHT22;21385;50.878;8.050;2023-01-05T02:33:23;10.50;99.90
35258;DHT22;21385;50.878;8.050;2023-01-05T02:36:07;10.50;99.90
35258;DHT22;21385;50.878;8.050;2023-01-05T02:38:36;10.50;99.90
35258;DHT22;21385;50.878;8.050;2023-01-05T02:41:12;10.50;99.90
35258;DHT22;21385;50.878;8.050;2023-01-05T02:43:41;10.50;99.90
35258;DHT22;21385;50.878;8.050;2023-01-05T02:46:07;10.50;99.90
35258;DHT22;21385;50.878;8.050;2023-01-05T02:48:33;10.50;99.90
35258;DHT22;21385;50.878;8.050;2023-01-05T02:51:02;10.50;99.90
35258;DHT22;21385;50.878;8.050;2023-01-05T02:53:38;10.50;99.90
35258;DHT22;21385;50.878;8.050;2023-01-05T02:58:55;10.50;99.90
35258;DHT22;21385;50.878;8.050;2023-01-05T03:04:39;10.40;99.90
35258;DHT22;21385;50.878;8.050;2023-01-05T03:06:47;10.40;99.90
35258;DHT22;21385;50.878;8.050;2023-01-05T03:09:16;10.40;99.90
35258;DHT22;21385;50.878;8.050;2023-01-05T03:14:40;10.30;99.90
35258;DHT22;21385;50.878;8.050;2023-01-05T03:17:10;10.30;99.90
35258;DHT22;21385;50.878;8.050;2023-01-05T03:19:37;10.30;99.90
35258;DHT22;21385;50.878;8.050;2023-01-05T03:22:12;10.30;99.90
35258;DHT22;21385;50.878;8.050;2023-01-05T03:24:58;10.30;99.90
35258;DHT22;21385;50.878;8.050;2023-01-05T03:27:44;10.30;99.90
35258;DHT22;21385;50.878;8.050;2023-01-05T03:30:55;10.30;99.90
35258;DHT22;21385;50.878;8.050;2023-01-05T03:36:57;10.20;99.90
35258;DHT22;21385;50.878;8.050;2023-01-05T03:39:23;10.20;99.90
35258;DHT22;21385;50.878;8.050;2023-01-05T03:41:51;10.20;99.90
35258;DHT22;21385;50.878;8.050;2023-01-05T03:44:16;10.20;99.90
35258;DHT22;21385;50.878;8.050;2023-01-05T03:46:42;10.30;99.90
35258;DHT22;21385;50.878;8.050;2023-01-05T03:49:08;10.30;99.90
35258;DHT22;21385;50.878;8.050;2023-01-05T03:51:34;10.20;99.90
35258;DHT22;21385;50.878;8.050;2023-01-05T03:53:59;10.20;99.90
35258;DHT22;21385;50.878;8.050;2023-01-05T03:56:25;10.20;99.90
35258;DHT22;21385;50.878;8.050;2023-01-05T03:58:50;10.10;99.90
35258;DHT22;21385;50.878;8.050;2023-01-05T04:01:16;10.10;99.90
35258;DHT22;21385;50.878;8.050;2023-01-05T04:03:41;10.10;99.90
35258;DHT22;21385;50.878;8.050;2023-01-05T04:06:07;10.10;99.90
35258;DHT22;21385;50.878;8.050;2023-01-05T04:08:33;10.10;99.90
35258;DHT22;21385;50.878;8.050;2023-01-05T04:11:14;10.10;99.90
35258;DHT22;21385;50.878;8.050;2023-01-05T04:13:40;10.10;99.90
35258;DHT22;21385;50.878;8.050;2023-01-05T04:16:06;10.20;99.90
35258;DHT22;21385;50.878;8.050;2023-01-05T04:18:31;10.20;99.90
35258;DHT22;21385;50.878;8.050;2023-01-05T04:20:57;10.10;99.90
35258;DHT22;21385;50.878;8.050;2023-01-05T04:23:22;10.00;99.90
35258;DHT22;21385;50.878;8.050;2023-01-05T04:25:48;10.00;99.90
35258;DHT22;21385;50.878;8.050;2023-01-05T04:28:13;10.00;99.90
35258;DHT22;21385;50.878;8.050;2023-01-05T04:30:41;10.10;99.90
35258;DHT22;21385;50.878;8.050;2023-01-05T04:33:06;10.00;99.90
35258;DHT22;21385;50.878;8.050;2023-01-05T04:35:32;10.00;99.90
35258;DHT22;21385;50.878;8.050;2023-01-05T04:37:58;10.00;99.90
35258;DHT22;21385;50.878;8.050;2023-01-05T04:40:23;10.00;99.90
35258;DHT22;21385;50.878;8.050;2023-01-05T04:42:49;10.00;99.90
35258;DHT22;21385;50.878;8.050;2023-01-05T04:45:14;10.00;99.90
35258;DHT22;21385;50.878;8.050;2023-01-05T04:47:40;10.10;99.90
35258;DHT22;21385;50.878;8.050;2023-01-05T04:50:06;10.10;99.90
35258;DHT22;21385;50.878;8.050;2023-01-05T04:52:32;10.00;99.90
35258;DHT22;21385;50.878;8.050;2023-01-05T04:54:57;10.00;99.90
35258;DHT22;21385;50.878;8.050;2023-01-05T04:57:23;10.00;99.90
35258;DHT22;21385;50.878;8.050;2023-01-05T04:59:49;9.90;99.90
35258;DHT22;21385;50.878;8.050;2023-01-05T05:02:14;9.90;99.90
35258;DHT22;21385;50.878;8.050;2023-01-05T05:04:40;9.80;99.90
35258;DHT22;21385;50.878;8.050;2023-01-05T05:07:05;9.70;99.90
35258;DHT22;21385;50.878;8.050;2023-01-05T05:09:31;9.80;99.90
35258;DHT22;21385;50.878;8.050;2023-01-05T05:11:57;9.70;99.90
35258;DHT22;21385;50.878;8.050;2023-01-05T05:14:22;9.70;99.90
35258;DHT22;21385;50.878;8.050;2023-01-05T05:16:48;9.70;99.90
35258;DHT22;21385;50.878;8.050;2023-01-05T05:19:13;9.60;99.90
35258;DHT22;21385;50.878;8.050;2023-01-05T05:21:39;9.60;99.90
35258;DHT22;21385;50.878;8.050;2023-01-05T05:24:05;9.60;99.90
35258;DHT22;21385;50.878;8.050;2023-01-05T05:26:30;9.70;99.90
35258;DHT22;21385;50.878;8.050;2023-01-05T05:28:59;9.70;99.90
35258;DHT22;21385;50.878;8.050;2023-01-05T05:31:24;9.70;99.90
35258;DHT22;21385;50.878;8.050;2023-01-05T05:33:50;9.60;99.90
35258;DHT22;21385;50.878;8.050;2023-01-05T05:36:16;9.70;99.90
35258;DHT22;21385;50.878;8.050;2023-01-05T05:38:44;9.70;99.90
35258;DHT22;21385;50.878;8.050;2023-01-05T05:41:10;9.60;99.90
35258;DHT22;21385;50.878;8.050;2023-01-05T05:43:35;9.70;99.90
35258;DHT22;21385;50.878;8.050;2023-01-05T05:46:01;9.60;99.90
35258;DHT22;21385;50.878;8.050;2023-01-05T05:48:27;9.60;99.90
35258;DHT22;21385;50.878;8.050;2023-01-05T05:50:52;9.50;99.90
35258;DHT22;21385;50.878;8.050;2023-01-05T05:53:18;9.50;99.90
35258;DHT22;21385;50.878;8.050;2023-01-05T05:55:48;9.50;99.90
35258;DHT22;21385;50.878;8.050;2023-01-05T05:58:14;9.60;99.90
35258;DHT22;21385;50.878;8.050;2023-01-05T06:00:39;9.60;99.90
35258;DHT22;21385;50.878;8.050;2023-01-05T06:03:05;9.60;99.90
35258;DHT22;21385;50.878;8.050;2023-01-05T06:05:31;9.60;99.90
35258;DHT22;21385;50.878;8.050;2023-01-05T06:07:56;9.50;99.90
35258;DHT22;21385;50.878;8.050;2023-01-05T06:10:22;9.50;99.90
35258;DHT22;21385;50.878;8.050;2023-01-05T06:12:47;9.50;99.90
35258;DHT22;21385;50.878;8.050;2023-01-05T06:15:13;9.60;99.90
35258;DHT22;21385;50.878;8.050;2023-01-05T06:17:38;9.50;99.90
35258;DHT22;21385;50.878;8.050;2023-01-05T06:20:05;9.50;99.90
35258;DHT22;21385;50.878;8.050;2023-01-05T06:22:30;9.50;99.90
35258;DHT22;21385;50.878;8.050;2023-01-05T06:24:56;9.50;99.90
35258;DHT22;21385;50.878;8.050;2023-01-05T06:27:22;9.60;99.90
35258;DHT22;21385;50.878;8.050;2023-01-05T06:29:47;9.50;99.90
35258;DHT22;21385;50.878;8.050;2023-01-05T06:32:13;9.50;99.90
35258;DHT22;21385;50.878;8.050;2023-01-05T06:34:38;9.50;99.90
35258;DHT22;21385;50.878;8.050;2023-01-05T06:37:04;9.50;99.90
35258;DHT22;21385;50.878;8.050;2023-01-05T06:41:56;9.60;99.90
35258;DHT22;21385;50.878;8.050;2023-01-05T06:44:22;9.50;99.90
35258;DHT22;21385;50.878;8.050;2023-01-05T06:46:47;9.50;99.90
35258;DHT22;21385;50.878;8.050;2023-01-05T06:49:13;9.50;99.90
35258;DHT22;21385;50.878;8.050;2023-01-05T06:51:39;9.50;99.90
35258;DHT22;21385;50.878;8.050;2023-01-05T06:54:05;9.60;99.90
35258;DHT22;21385;50.878;8.050;2023-01-05T06:56:31;9.60;99.90
35258;DHT22;21385;50.878;8.050;2023-01-05T06:58:56;9.60;99.90
35258;DHT22;21385;50.878;8.050;2023-01-05T07:01:22;9.60;99.90
35258;DHT22;21385;50.878;8.050;2023-01-05T07:03:47;9.70;99.90
35258;DHT22;21385;50.878;8.050;2023-01-05T07:06:14;9.70;99.90
35258;DHT22;21385;50.878;8.050;2023-01-05T07:11:05;9.70;99.90
35258;DHT22;21385;50.878;8.050;2023-01-05T07:13:31;9.60;99.90
35258;DHT22;21385;50.878;8.050;2023-01-05T07:15:57;9.60;99.90
35258;DHT22;21385;50.878;8.050;2023-01-05T07:18:22;9.60;99.90
35258;DHT22;21385;50.878;8.050;2023-01-05T07:20:48;9.60;99.90
35258;DHT22;21385;50.878;8.050;2023-01-05T07:23:13;9.60;99.90
35258;DHT22;21385;50.878;8.050;2023-01-05T07:25:39;9.60;99.90
35258;DHT22;21385;50.878;8.050;2023-01-05T07:28:04;9.60;99.90
35258;DHT22;21385;50.878;8.050;2023-01-05T07:30:30;9.50;99.90
35258;DHT22;21385;50.878;8.050;2023-01-05T07:32:59;9.60;99.90
35258;DHT22;21385;50.878;8.050;2023-01-05T07:35:25;9.60;99.90
35258;DHT22;21385;50.878;8.050;2023-01-05T07:37:50;9.60;99.90
35258;DHT22;21385;50.878;8.050;2023-01-05T07:40:16;9.60;99.90
35258;DHT22;21385;50.878;8.050;2023-01-05T07:42:41;9.70;99.90
35258;DHT22;21385;50.878;8.050;2023-01-05T07:45:08;9.60;99.90
35258;DHT22;21385;50.878;8.050;2023-01-05T07:47:33;9.60;99.90
35258;DHT22;21385;50.878;8.050;2023-01-05T07:49:59;9.60;99.90
35258;DHT22;21385;50.878;8.050;2023-01-05T07:52:27;9.60;99.90
35258;DHT22;21385;50.878;8.050;2023-01-05T07:54:54;9.70;99.90
35258;DHT22;21385;50.878;8.050;2023-01-05T07:57:19;9.70;99.90
35258;DHT22;21385;50.878;8.050;2023-01-05T07:59:45;9.60;99.90
35258;DHT22;21385;50.878;8.050;2023-01-05T08:02:10;9.60;99.90
35258;DHT22;21385;50.878;8.050;2023-01-05T08:04:36;9.70;99.90
35258;DHT22;21385;50.878;8.050;2023-01-05T08:07:02;9.60;99.90
35258;DHT22;21385;50.878;8.050;2023-01-05T08:09:29;9.60;99.90
35258;DHT22;21385;50.878;8.050;2023-01-05T08:12:13;9.60;99.90
35258;DHT22;21385;50.878;8.050;2023-01-05T08:14:39;9.60;99.90
35258;DHT22;21385;50.878;8.050;2023-01-05T08:17:04;9.70;99.90
35258;DHT22;21385;50.878;8.050;2023-01-05T08:19:30;9.70;99.90
35258;DHT22;21385;50.878;8.050;2023-01-05T08:21:55;9.60;99.90
35258;DHT22;21385;50.878;8.050;2023-01-05T08:24:21;9.70;99.90
35258;DHT22;21385;50.878;8.050;2023-01-05T08:26:48;9.70;99.90
35258;DHT22;21385;50.878;8.050;2023-01-05T08:29:14;9.70;99.90
35258;DHT22;21385;50.878;8.050;2023-01-05T08:31:40;9.70;99.90
35258;DHT22;21385;50.878;8.050;2023-01-05T08:34:06;9.80;99.90
35258;DHT22;21385;50.878;8.050;2023-01-05T08:36:31;9.90;99.90
35258;DHT22;21385;50.878;8.050;2023-01-05T08:38:58;9.90;99.90
35258;DHT22;21385;50.878;8.050;2023-01-05T08:41:27;9.90;99.90
35258;DHT22;21385;50.878;8.050;2023-01-05T08:43:56;9.90;99.90
35258;DHT22;21385;50.878;8.050;2023-01-05T08:46:24;10.00;99.90
35258;DHT22;21385;50.878;8.050;2023-01-05T08:48:52;9.90;99.90
35258;DHT22;21385;50.878;8.050;2023-01-05T08:51:18;9.80;99.90
35258;DHT22;21385;50.878;8.050;2023-01-05T08:53:44;9.80;99.90
35258;DHT22;21385;50.878;8.050;2023-01-05T08:56:10;9.80;99.90
35258;DHT22;21385;50.878;8.050;2023-01-05T08:58:37;9.90;99.90
35258;DHT22;21385;50.878;8.050;2023-01-05T09:01:15;9.90;99.90
35258;DHT22;21385;50.878;8.050;2023-01-05T09:03:41;10.00;99.90
35258;DHT22;21385;50.878;8.050;2023-01-05T09:06:08;9.90;99.90
35258;DHT22;21385;50.878;8.050;2023-01-05T09:08:36;9.90;99.90
35258;DHT22;21385;50.878;8.050;2023-01-05T09:11:15;9.90;99.90
35258;DHT22;21385;50.878;8.050;2023-01-05T09:13:52;9.90;99.90
35258;DHT22;21385;50.878;8.050;2023-01-05T09:16:20;9.90;99.90
35258;DHT22;21385;50.878;8.050;2023-01-05T09:18:47;9.80;99.90
35258;DHT22;21385;50.878;8.050;2023-01-05T09:21:13;9.90;99.90
35258;DHT22;21385;50.878;8.050;2023-01-05T09:23:39;9.90;99.90
35258;DHT22;21385;50.878;8.050;2023-01-05T09:26:07;10.00;99.90
35258;DHT22;21385;50.878;8.050;2023-01-05T09:28:33;10.00;99.90
35258;DHT22;21385;50.878;8.050;2023-01-05T09:31:21;10.00;99.90
35258;DHT22;21385;50.878;8.050;2023-01-05T09:33:47;9.90;99.90
35258;DHT22;21385;50.878;8.050;2023-01-05T09:36:15;9.90;99.90
35258;DHT22;21385;50.878;8.050;2023-01-05T09:38:41;9.80;99.90
35258;DHT22;21385;50.878;8.050;2023-01-05T09:43:40;9.90;99.90
35258;DHT22;21385;50.878;8.050;2023-01-05T09:46:17;9.90;99.90
35258;DHT22;21385;50.878;8.050;2023-01-05T09:48:47;9.90;99.90
35258;DHT22;21385;50.878;8.050;2023-01-05T09:51:14;10.00;99.90
35258;DHT22;21385;50.878;8.050;2023-01-05T09:53:40;10.00;99.90
35258;DHT22;21385;50.878;8.050;2023-01-05T09:56:21;10.00;99.90
35258;DHT22;21385;50.878;8.050;2023-01-05T09:58:49;10.00;99.90
35258;DHT22;21385;50.878;8.050;2023-01-05T10:01:16;10.00;99.90
35258;DHT22;21385;50.878;8.050;2023-01-05T10:03:53;9.90;99.90
35258;DHT22;21385;50.878;8.050;2023-01-05T10:06:26;9.90;99.90
35258;DHT22;21385;50.878;8.050;2023-01-05T10:08:52;10.00;99.90
35258;DHT22;21385;50.878;8.050;2023-01-05T10:11:33;10.00;99.90
35258;DHT22;21385;50.878;8.050;2023-01-05T10:14:25;9.90;99.90
35258;DHT22;21385;50.878;8.050;2023-01-05T10:16:52;9.90;99.90
35258;DHT22;21385;50.878;8.050;2023-01-05T10:19:19;10.00;99.90
35258;DHT22;21385;50.878;8.050;2023-01-05T10:24:46;9.90;99.90
35258;DHT22;21385;50.878;8.050;2023-01-05T10:27:26;9.90;99.90
35258;DHT22;21385;50.878;8.050;2023-01-05T10:35:26;9.70;99.90
35258;DHT22;21385;50.878;8.050;2023-01-05T10:38:01;9.80;99.90
35258;DHT22;21385;50.878;8.050;2023-01-05T10:45:49;9.90;99.90
35258;DHT22;21385;50.878;8.050;2023-01-05T10:48:17;10.00;99.90
35258;DHT22;21385;50.878;8.050;2023-01-05T10:50:45;10.00;99.90
35258;DHT22;21385;50.878;8.050;2023-01-05T10:53:19;10.00;99.90
35258;DHT22;21385;50.878;8.050;2023-01-05T10:55:58;10.10;99.90
35258;DHT22;21385;50.878;8.050;2023-01-05T10:58:27;10.10;99.90
35258;DHT22;21385;50.878;8.050;2023-01-05T11:00:55;10.10;99.90
35258;DHT22;21385;50.878;8.050;2023-01-05T11:03:36;10.10;99.90
35258;DHT22;21385;50.878;8.050;2023-01-05T11:06:03;10.20;99.90
35258;DHT22;21385;50.878;8.050;2023-01-05T11:08:30;10.20;99.90
35258;DHT22;21385;50.878;8.050;2023-01-05T11:11:02;10.10;99.90
35258;DHT22;21385;50.878;8.050;2023-01-05T11:13:35;10.20;99.90
35258;DHT22;21385;50.878;8.050;2023-01-05T11:16:12;10.20;99.90
35258;DHT22;21385;50.878;8.050;2023-01-05T11:21:15;10.20;99.90
35258;DHT22;21385;50.878;8.050;2023-01-05T11:29:17;10.30;99.90
35258;DHT22;21385;50.878;8.050;2023-01-05T11:37:00;10.40;99.90
35258;DHT22;21385;50.878;8.050;2023-01-05T11:40:16;10.40;99.90
35258;DHT22;21385;50.878;8.050;2023-01-05T11:44:57;10.50;99.90
35258;DHT22;21385;50.878;8.050;2023-01-05T11:47:31;10.50;99.90
35258;DHT22;21385;50.878;8.050;2023-01-05T11:52:36;10.50;99.90
35258;DHT22;21385;50.878;8.050;2023-01-05T11:57:55;10.50;99.90
35258;DHT22;21385;50.878;8.050;2023-01-05T12:00:23;10.50;99.90
35258;DHT22;21385;50.878;8.050;2023-01-05T12:05:23;10.40;99.90
35258;DHT22;21385;50.878;8.050;2023-01-05T12:07:59;10.30;99.90
35258;DHT22;21385;50.878;8.050;2023-01-05T12:13:52;10.30;99.90
35258;DHT22;21385;50.878;8.050;2023-01-05T12:21:55;10.30;99.90
35258;DHT22;21385;50.878;8.050;2023-01-05T12:27:18;10.30;99.90
35258;DHT22;21385;50.878;8.050;2023-01-05T12:32:47;10.50;99.90
35258;DHT22;21385;50.878;8.050;2023-01-05T12:36:05;10.50;99.90
35258;DHT22;21385;50.878;8.050;2023-01-05T12:38:07;10.50;99.90
35258;DHT22;21385;50.878;8.050;2023-01-05T12:43:54;10.60;99.90
35258;DHT22;21385;50.878;8.050;2023-01-05T12:49:27;10.50;99.90
35258;DHT22;21385;50.878;8.050;2023-01-05T12:52:11;10.50;99.90
35258;DHT22;21385;50.878;8.050;2023-01-05T12:57:17;10.50;99.90
35258;DHT22;21385;50.878;8.050;2023-01-05T13:00:08;10.50;99.90
35258;DHT22;21385;50.878;8.050;2023-01-05T13:02:38;10.50;99.90
35258;DHT22;21385;50.878;8.050;2023-01-05T13:05:26;10.60;99.90
35258;DHT22;21385;50.878;8.050;2023-01-05T13:08:07;10.60;99.90
35258;DHT22;21385;50.878;8.050;2023-01-05T13:13:35;10.90;99.90
35258;DHT22;21385;50.878;8.050;2023-01-05T13:16:07;10.90;99.90
35258;DHT22;21385;50.878;8.050;2023-01-05T13:18:40;10.80;99.90
35258;DHT22;21385;50.878;8.050;2023-01-05T13:21:07;10.80;99.90
35258;DHT22;21385;50.878;8.050;2023-01-05T13:23:40;10.80;99.90
35258;DHT22;21385;50.878;8.050;2023-01-05T13:26:12;10.80;99.90
35258;DHT22;21385;50.878;8.050;2023-01-05T13:28:38;10.80;99.90
35258;DHT22;21385;50.878;8.050;2023-01-05T13:37:12;10.60;99.90
35258;DHT22;21385;50.878;8.050;2023-01-05T13:55:21;11.90;99.90
35258;DHT22;21385;50.878;8.050;2023-01-05T13:57:47;12.20;99.90
35258;DHT22;21385;50.878;8.050;2023-01-05T14:00:32;12.20;99.90
35258;DHT22;21385;50.878;8.050;2023-01-05T14:03:00;12.40;99.90
35258;DHT22;21385;50.878;8.050;2023-01-05T14:05:37;12.60;99.90
35258;DHT22;21385;50.878;8.050;2023-01-05T14:08:05;12.70;99.90
35258;DHT22;21385;50.878;8.050;2023-01-05T14:10:39;12.80;99.90
35258;DHT22;21385;50.878;8.050;2023-01-05T14:13:04;12.80;99.90
35258;DHT22;21385;50.878;8.050;2023-01-05T14:15:41;12.90;99.90
35258;DHT22;21385;50.878;8.050;2023-01-05T14:18:11;12.90;99.90
35258;DHT22;21385;50.878;8.050;2023-01-05T14:20:47;13.20;99.90
35258;DHT22;21385;50.878;8.050;2023-01-05T14:28:20;12.50;99.90
35258;DHT22;21385;50.878;8.050;2023-01-05T14:30:47;12.30;99.90
35258;DHT22;21385;50.878;8.050;2023-01-05T14:33:16;12.10;99.90
35258;DHT22;21385;50.878;8.050;2023-01-05T14:35:42;11.90;99.90
35258;DHT22;21385;50.878;8.050;2023-01-05T14:38:23;11.80;99.90
35258;DHT22;21385;50.878;8.050;2023-01-05T14:40:51;11.70;99.90
35258;DHT22;21385;50.878;8.050;2023-01-05T14:43:33;11.60;99.90
35258;DHT22;21385;50.878;8.050;2023-01-05T14:46:09;11.50;99.90
35258;DHT22;21385;50.878;8.050;2023-01-05T14:48:38;11.30;99.90
35258;DHT22;21385;50.878;8.050;2023-01-05T14:51:20;11.20;99.90
35258;DHT22;21385;50.878;8.050;2023-01-05T14:53:49;11.00;99.90
35258;DHT22;21385;50.878;8.050;2023-01-05T15:04:03;11.00;99.90
35258;DHT22;21385;50.878;8.050;2023-01-05T15:13:00;10.90;99.90
35258;DHT22;21385;50.878;8.050;2023-01-05T15:31:55;10.80;99.90
35258;DHT22;21385;50.878;8.050;2023-01-05T15:35:19;10.80;99.90
35258;DHT22;21385;50.878;8.050;2023-01-05T15:37:45;10.80;99.90
35258;DHT22;21385;50.878;8.050;2023-01-05T15:42:51;10.70;99.90
35258;DHT22;21385;50.878;8.050;2023-01-05T15:45:31;10.70;99.90
35258;DHT22;21385;50.878;8.050;2023-01-05T15:48:05;10.70;99.90
35258;DHT22;21385;50.878;8.050;2023-01-05T15:50:45;10.70;99.90
35258;DHT22;21385;50.878;8.050;2023-01-05T15:53:29;10.70;99.90
35258;DHT22;21385;50.878;8.050;2023-01-05T15:55:56;10.80;99.90
35258;DHT22;21385;50.878;8.050;2023-01-05T15:58:23;10.80;99.90
35258;DHT22;21385;50.878;8.050;2023-01-05T16:01:00;10.80;99.90
35258;DHT22;21385;50.878;8.050;2023-01-05T16:03:28;10.80;99.90
35258;DHT22;21385;50.878;8.050;2023-01-05T16:06:05;10.80;99.90
35258;DHT22;21385;50.878;8.050;2023-01-05T16:08:35;10.80;99.90
35258;DHT22;21385;50.878;8.050;2023-01-05T16:11:06;10.80;99.90
35258;DHT22;21385;50.878;8.050;2023-01-05T16:16:23;11.50;99.90
35258;DHT22;21385;50.878;8.050;2023-01-05T16:18:55;11.50;99.90
35258;DHT22;21385;50.878;8.050;2023-01-05T16:21:33;11.30;99.90
35258;DHT22;21385;50.878;8.050;2023-01-05T16:26:34;11.10;99.90
35258;DHT22;21385;50.878;8.050;2023-01-05T16:29:00;11.00;99.90
35258;DHT22;21385;50.878;8.050;2023-01-05T16:34:12;10.80;99.90
35258;DHT22;21385;50.878;8.050;2023-01-05T16:36:39;10.80;99.90
35258;DHT22;21385;50.878;8.050;2023-01-05T16:39:21;10.80;99.90
35258;DHT22;21385;50.878;8.050;2023-01-05T16:41:47;10.70;99.90
35258;DHT22;21385;50.878;8.050;2023-01-05T16:44:31;10.80;99.90
35258;DHT22;21385;50.878;8.050;2023-01-05T16:47:07;10.70;99.90
35258;DHT22;21385;50.878;8.050;2023-01-05T16:49:34;10.70;99.90
35258;DHT22;21385;50.878;8.050;2023-01-05T16:52:03;10.80;99.90
35258;DHT22;21385;50.878;8.050;2023-01-05T16:54:35;10.90;99.90
35258;DHT22;21385;50.878;8.050;2023-01-05T16:59:53;10.90;99.90
35258;DHT22;21385;50.878;8.050;2023-01-05T17:02:46;10.80;99.90
35258;DHT22;21385;50.878;8.050;2023-01-05T17:05:17;10.60;99.90
35258;DHT22;21385;50.878;8.050;2023-01-05T17:07:44;10.50;99.90
35258;DHT22;21385;50.878;8.050;2023-01-05T17:10:21;10.40;99.90
35258;DHT22;21385;50.878;8.050;2023-01-05T17:13:10;10.30;99.90
35258;DHT22;21385;50.878;8.050;2023-01-05T17:15:42;10.30;99.90
35258;DHT22;21385;50.878;8.050;2023-01-05T17:18:15;10.40;99.90
35258;DHT22;21385;50.878;8.050;2023-01-05T17:20:42;10.40;99.90
35258;DHT22;21385;50.878;8.050;2023-01-05T17:23:27;10.40;99.90
35258;DHT22;21385;50.878;8.050;2023-01-05T17:25:58;10.40;99.90
35258;DHT22;21385;50.878;8.050;2023-01-05T17:28:24;10.40;99.90
35258;DHT22;21385;50.878;8.050;2023-01-05T17:30:51;10.40;99.90
35258;DHT22;21385;50.878;8.050;2023-01-05T17:33:17;10.30;99.90
35258;DHT22;21385;50.878;8.050;2023-01-05T17:35:43;10.40;99.90
35258;DHT22;21385;50.878;8.050;2023-01-05T17:38:11;10.40;99.90
35258;DHT22;21385;50.878;8.050;2023-01-05T17:40:37;10.40;99.90
35258;DHT22;21385;50.878;8.050;2023-01-05T17:43:03;10.40;99.90
35258;DHT22;21385;50.878;8.050;2023-01-05T17:45:28;10.40;99.90
35258;DHT22;21385;50.878;8.050;2023-01-05T17:47:55;10.40;99.90
35258;DHT22;21385;50.878;8.050;2023-01-05T17:50:31;10.40;99.90
35258;DHT22;21385;50.878;8.050;2023-01-05T17:52:58;10.40;99.90
35258;DHT22;21385;50.878;8.050;2023-01-05T17:55:25;10.50;99.90
35258;DHT22;21385;50.878;8.050;2023-01-05T17:57:51;10.40;99.90
35258;DHT22;21385;50.878;8.050;2023-01-05T18:00:18;10.30;99.90
35258;DHT22;21385;50.878;8.050;2023-01-05T18:02:44;10.30;99.90
35258;DHT22;21385;50.878;8.050;2023-01-05T18:05:11;10.20;99.90
35258;DHT22;21385;50.878;8.050;2023-01-05T18:07:38;10.20;99.90
35258;DHT22;21385;50.878;8.050;2023-01-05T18:10:11;10.20;99.90
35258;DHT22;21385;50.878;8.050;2023-01-05T18:12:37;10.20;99.90
35258;DHT22;21385;50.878;8.050;2023-01-05T18:15:03;10.20;99.90
35258;DHT22;21385;50.878;8.050;2023-01-05T18:17:29;10.20;99.90
35258;DHT22;21385;50.878;8.050;2023-01-05T18:19:55;10.20;99.90
35258;DHT22;21385;50.878;8.050;2023-01-05T18:22:20;10.20;99.90
35258;DHT22;21385;50.878;8.050;2023-01-05T18:24:46;10.20;99.90
35258;DHT22;21385;50.878;8.050;2023-01-05T18:27:12;10.20;99.90
35258;DHT22;21385;50.878;8.050;2023-01-05T18:29:39;10.20;99.90
35258;DHT22;21385;50.878;8.050;2023-01-05T18:32:05;10.20;99.90
35258;DHT22;21385;50.878;8.050;2023-01-05T18:34:32;10.20;99.90